Terminal Aerodrome Forecast
Issued by NWS

Home | Current Version | Previous Version | Text Only | Print | Product List | Glossary On
Versions: 1 2 3 4 5 6 7 8 9 10 11 12 13 14 15 16 17 18
000
FTPA31 PHFO 231958 AAA
TAFHNY
TAF AMD
PHNY 231958Z 2320/2418 04028G34KT P6SM -RA BKN015 BKN040
      TEMPO 2320/2322 BKN006
     FM240000 01025G35KT 4SM -SHRA BR SCT020 BKN030=

USA.gov is the U.S. government's official web portal to all federal, state and local government web resources and services.